Historyczne dane pomiarowe

Dodano dane terminowe – wersja testowa.

Dane z okresu 1951-2019

Wersja bazy: 1.34 [2019-03-16, lista zmian], aktualizacja planowana na 2019-04-15

Dane meteo z obszaru Polski uzyskane na podstawie danych udostępnionych przez Instytut Meteorologii i Gospodarki Wodnej – Państwowy Instytut Badawczy.

 

Wybierz Datę:    

       

TemperaturaWilgotnośćWiatrCiśnienieOpadyŚniegCzas trwania zjawisk
 Stacja t tx tn tng RH VA  wxwx mslp ppp RRR   cm mm wxwxwxwxwxwxwx
1970-10-10 13.4 21.1 7.7--- 2.3 0.0---- 0.0------------
1970-10-09 12.3 20.2 8.2--- 0.0 0.0---- 0.0------------
1970-10-08 12.7 20.1 8.2--- 0.0 0.0---- 0.0------------
1970-10-07 14.1 17.1 9.6--- 5.3 1.0---- 0.0------------
1970-10-06 9.8 11.6 7.2--- 8.0 0.0---- 0.7------------
1970-10-05 8.0 10.6 6.2--- 8.0 1.0---- 10.0------------
1970-10-04 6.5 10.6 2.2--- 7.0 1.7---- 3.9------------
1970-10-03 7.9 10.7 5.7--- 7.7 0.0---- 2.4------------
1970-10-02 9.2 11.6 6.4--- 8.0 0.0---- 4.6------------
1970-10-01 7.1 9.1 5.6--- 8.0 0.0---- 8.3------------
1970-09-30 6.5 9.7 -0.8--- 7.3 0.0---- 0.0------------
1970-09-29 2.5 8.6 0.2--- 7.0 0.0---- 0.0------------
1970-09-28 4.9 8.1 2.2--- 7.3 1.0---- 0.0------------
1970-09-27 7.2 9.7 4.7--- 7.3 0.0---- 0.0------------
1970-09-26 7.3 10.1 4.6--- 7.3 1.0---- 0.5------------
1970-09-25 7.2 11.2 2.7--- 7.7 0.0---- 5.0------------
1970-09-24 4.9 10.8 0.7--- 7.3 2.0---- 0.0------------
1970-09-23 4.7 9.6 1.2--- 5.3 0.0---- 1.0------------
1970-09-22 8.1 12.6 5.7--- 7.3 1.0---- 1.5------------
1970-09-21 11.9 15.6 8.7--- 7.7 0.0---- 3.4------------
1970-09-20 10.5 12.6 8.4--- 8.0 0.0---- 3.8------------
1970-09-19 10.7 13.1 9.2--- 8.0 0.0---- 4.2------------
1970-09-18 11.3 12.7 10.6--- 8.0 0.0---- 1.2------------
1970-09-17 11.7 18.6 10.7--- 8.0 0.0---- 2.8------------
1970-09-16 19.0 25.0 12.3--- 2.3 2.7---- 6.0------------
1970-09-15 15.5 24.2 8.0--- 1.3 0.0---- 0.0------------
1970-09-14 14.3 20.7 9.7--- 6.3 0.0---- 0.0------------
1970-09-13 14.6 21.6 13.1--- 7.7 0.0---- 4.7------------
1970-09-12 15.8 22.2 13.5--- 8.0 0.0---- 7.4------------
1970-09-11 20.8 26.1 14.6--- 3.0 0.0---- 0.0------------
1970-09-10 17.9 24.1 10.8--- 3.7 0.0---- 0.0------------
1970-09-09 16.0 21.6 11.7--- 6.7 0.0---- 0.0------------
1970-09-08 13.2 17.6 3.7--- 3.7 3.0---- 0.0------------
1970-09-07 9.2 14.4 6.2--- 7.3 3.0---- 0.0------------
1970-09-06 10.5 14.1 9.0--- 6.3 3.0---- 2.8------------
1970-09-05 11.4 16.6 8.2--- 7.7 0.0---- 5.5------------
1970-09-04 13.6 18.1 12.1--- 7.7 0.0---- 9.6------------
1970-09-03 15.0 19.7 9.2--- 7.3 0.0---- 0.5------------
1970-09-02 12.7 18.1 11.1--- 7.7 0.0---- 0.0------------
1970-09-01 17.7 22.1 12.9--- 8.0 0.0---- 0.0------------
1970-08-31 15.8 19.6 14.1--- 8.0 0.0---- 0.0------------
1970-08-30 16.0 20.6 10.6--- 6.7 0.0---- 8.8------------
1970-08-29 15.7 21.7 9.6--- 3.7 1.0---- 0.0------------
1970-08-28 14.2 21.8 9.2--- 5.7 1.0---- 0.0------------
1970-08-27 14.0 19.6 11.2--- 6.3 0.0---- 0.0------------
1970-08-26 14.2 19.6 11.2--- 7.3 1.0---- 0.0------------
1970-08-25 15.5 19.6 11.2--- 7.7 1.7---- 0.5------------
1970-08-24 14.7 23.1 12.6--- 7.3 0.0---- 2.2------------
1970-08-23 14.8 19.1 12.1--- 7.7 0.0---- 10.5------------
1970-08-22 15.1 19.1 10.6--- 6.7 0.0---- 6.9------------
1970-08-21 15.5 21.6 8.4--- 7.3 2.7---- 0.0------------
1970-08-20 16.3 23.6 8.8--- 4.3 1.0---- 0.0------------
1970-08-19 13.3 21.1 7.2--- 6.7 1.7---- 0.0------------
1970-08-18 12.8 19.1 10.8--- 8.0 4.7---- 5.6------------
1970-08-17 18.9 23.6 13.1--- 7.3 0.0---- 19.4------------
1970-08-16 18.2 22.6 15.6--- 7.3 0.0---- 0.0------------
1970-08-15 17.4 24.6 8.2--- 3.7 0.0---- 3.3------------
1970-08-14 14.1 21.6 7.0--- 5.0 0.0---- 0.0------------
1970-08-13 12.6 18.1 9.2--- 7.3 0.0---- 0.5------------
1970-08-12 13.0 17.1 10.4--- 7.3 3.3---- 0.0------------
288.5 ms

 

Źródłem pochodzenia danych jest Instytut Meteorologii i Gospodarki Wodnej – Państwowy Instytut Badawczy. Dane Instytutu Meteorologii i Gospodarki Wodnej – Państwowego Instytutu Badawczego zostały przetworzone.

Dane źródłowe można odnaleźć na stronie https://dane.imgw.pl